createdAt,value
2022-09-10T00:02:56.458Z,1.17
2022-09-10T00:06:05.542Z,0.83
2022-09-10T00:09:11.382Z,1.00
2022-09-10T00:12:16.130Z,1.30
2022-09-10T00:15:21.087Z,1.10
2022-09-10T00:18:25.780Z,1.30
2022-09-10T00:21:30.902Z,2.90
2022-09-10T00:24:35.557Z,1.33
2022-09-10T00:27:43.526Z,0.80
2022-09-10T00:30:51.033Z,1.40
2022-09-10T00:33:56.170Z,0.90
2022-09-10T00:37:01.060Z,1.88
2022-09-10T00:40:06.146Z,1.90
2022-09-10T00:43:23.003Z,1.48
2022-09-10T00:46:34.807Z,1.20
2022-09-10T00:49:44.668Z,1.90
2022-09-10T00:52:51.127Z,1.27
2022-09-10T00:56:15.766Z,1.23
2022-09-10T00:59:24.528Z,1.70
2022-09-10T01:02:29.485Z,2.10
2022-09-10T01:05:35.425Z,0.90
2022-09-10T01:08:40.462Z,1.50
2022-09-10T01:12:20.349Z,2.13
2022-09-10T01:15:28.595Z,1.10
2022-09-10T01:18:33.567Z,1.10
2022-09-10T01:22:16.031Z,1.45
2022-09-10T01:25:41.133Z,1.20
2022-09-10T01:29:05.331Z,1.92
2022-09-10T01:32:23.636Z,1.25
2022-09-10T01:35:44.121Z,2.08
2022-09-10T01:38:51.775Z,1.77
2022-09-10T01:41:58.164Z,1.00
2022-09-10T01:45:07.511Z,1.58
2022-09-10T01:48:51.632Z,1.08
2022-09-10T01:52:26.528Z,0.98
2022-09-10T01:55:46.356Z,1.25
2022-09-10T01:58:51.460Z,0.82
2022-09-10T02:02:20.744Z,1.17
2022-09-10T02:05:28.108Z,2.43
2022-09-10T02:08:38.601Z,1.40
2022-09-10T02:12:13.504Z,2.22
2022-09-10T02:15:32.457Z,0.80
2022-09-10T02:18:53.132Z,1.08
2022-09-10T02:21:59.867Z,0.77
2022-09-10T02:25:05.647Z,0.93
2022-09-10T02:28:10.496Z,1.33
2022-09-10T02:31:15.447Z,0.70
2022-09-10T02:34:22.736Z,1.20
2022-09-10T02:37:27.795Z,0.98
2022-09-10T02:40:32.737Z,2.60
2022-09-10T02:43:39.414Z,1.13
2022-09-10T02:46:46.074Z,1.25
2022-09-10T02:49:52.201Z,1.00
2022-09-10T02:56:01.997Z,1.45
2022-09-10T02:59:07.322Z,2.25
2022-09-10T03:02:12.932Z,1.13
2022-09-10T03:05:18.920Z,2.65
2022-09-10T03:08:23.492Z,1.48
2022-09-10T03:11:28.389Z,0.95
2022-09-10T03:14:35.668Z,1.17
2022-09-10T03:17:40.387Z,1.70
2022-09-10T03:20:45.153Z,1.08
2022-09-10T03:23:52.239Z,1.38
2022-09-10T03:27:02.092Z,2.00
2022-09-10T03:30:07.680Z,1.08
2022-09-10T03:33:12.648Z,2.10
2022-09-10T03:36:19.144Z,2.58
2022-09-10T03:39:26.205Z,1.10
2022-09-10T03:42:30.741Z,1.02
2022-09-10T03:45:35.544Z,0.98
2022-09-10T03:48:41.601Z,1.70
2022-09-10T03:54:52.042Z,1.10
2022-09-10T03:57:59.168Z,1.08
2022-09-10T04:01:04.129Z,1.17
2022-09-10T04:04:12.374Z,1.92
2022-09-10T04:07:17.189Z,1.50
2022-09-10T04:10:23.841Z,1.48
2022-09-10T04:13:28.652Z,1.15
2022-09-10T04:16:33.837Z,1.40
2022-09-10T04:19:38.983Z,1.55
2022-09-10T04:25:48.199Z,0.80
2022-09-10T04:28:53.454Z,1.58
2022-09-10T04:31:59.181Z,0.88
2022-09-10T04:35:08.350Z,1.23
2022-09-10T04:38:13.687Z,1.25
2022-09-10T04:41:20.487Z,1.45
2022-09-10T04:44:25.841Z,1.40
2022-09-10T04:47:30.602Z,1.10
2022-09-10T04:50:36.460Z,2.75
2022-09-10T04:53:47.628Z,1.73
2022-09-10T04:56:53.137Z,2.22
2022-09-10T04:59:58.357Z,1.40
2022-09-10T05:06:08.347Z,5.20
2022-09-10T05:09:13.207Z,2.55
2022-09-10T05:12:20.737Z,1.60
2022-09-10T05:15:25.570Z,2.20
2022-09-10T05:18:31.090Z,2.08
2022-09-10T05:21:35.806Z,0.90
2022-09-10T05:24:40.650Z,1.58
2022-09-10T05:27:45.428Z,1.23
2022-09-10T05:30:54.911Z,0.65
2022-09-10T05:34:02.078Z,1.13
2022-09-10T05:37:09.754Z,1.48
2022-09-10T05:40:17.904Z,1.63
2022-09-10T05:43:23.029Z,1.77
2022-09-10T05:46:31.895Z,1.40
2022-09-10T05:49:47.927Z,1.58
2022-09-10T05:52:53.328Z,1.23
2022-09-10T05:55:58.278Z,0.80
2022-09-10T05:59:05.069Z,1.42
2022-09-10T06:02:23.235Z,1.40
2022-09-10T06:05:30.250Z,1.33
2022-09-10T06:08:36.624Z,1.20
2022-09-10T06:11:51.290Z,0.93
2022-09-10T06:14:57.294Z,1.63
2022-09-10T06:18:02.989Z,1.83
2022-09-10T06:21:13.588Z,0.80
2022-09-10T06:24:25.351Z,1.10
2022-09-10T06:27:33.530Z,1.20
2022-09-10T06:30:40.495Z,1.35
2022-09-10T06:33:47.885Z,1.88
2022-09-10T06:36:58.119Z,1.30
2022-09-10T06:40:05.400Z,1.65
2022-09-10T06:43:11.247Z,2.00
2022-09-10T06:50:02.493Z,1.20
2022-09-10T06:53:12.472Z,1.15
2022-09-10T06:56:17.362Z,1.20
2022-09-10T06:59:22.693Z,1.02
2022-09-10T07:02:28.931Z,2.58
2022-09-10T07:05:37.050Z,0.90
2022-09-10T07:08:42.471Z,0.98
2022-09-10T07:11:49.906Z,1.33
2022-09-10T07:14:55.617Z,1.50
2022-09-10T07:18:01.336Z,0.93
2022-09-10T07:21:16.345Z,1.33
2022-09-10T07:24:22.841Z,1.17
2022-09-10T07:27:56.948Z,1.02
2022-09-10T07:31:11.643Z,0.90
2022-09-10T07:34:17.298Z,1.60
2022-09-10T07:37:23.463Z,1.35
2022-09-10T07:40:29.122Z,1.70
2022-09-10T07:43:35.361Z,3.72
2022-09-10T07:49:47.137Z,1.98
2022-09-10T07:52:53.606Z,1.77
2022-09-10T07:56:02.810Z,1.70
2022-09-10T07:59:12.425Z,3.70
2022-09-10T08:02:23.033Z,2.30
2022-09-10T08:05:34.117Z,3.92
2022-09-10T08:08:40.813Z,12.57
2022-09-10T08:11:48.683Z,7.43
2022-09-10T08:14:57.731Z,6.55
2022-09-10T08:18:04.939Z,6.60
2022-09-10T08:21:10.152Z,7.63
2022-09-10T08:24:15.616Z,5.47
2022-09-10T08:27:24.932Z,6.18
2022-09-10T08:31:52.421Z,6.85
2022-09-10T08:35:05.073Z,6.50
2022-09-10T08:38:11.840Z,6.60
2022-09-10T08:41:24.178Z,6.78
2022-09-10T08:44:32.272Z,6.90
2022-09-10T08:47:37.941Z,6.05
2022-09-10T08:51:04.150Z,5.75
2022-09-10T08:54:19.132Z,6.30
2022-09-10T08:57:31.537Z,5.13
2022-09-10T09:00:41.229Z,6.22
2022-09-10T09:03:51.512Z,5.30
2022-09-10T09:07:04.387Z,5.82
2022-09-10T09:10:26.959Z,4.10
2022-09-10T09:13:50.349Z,4.40
2022-09-10T09:17:18.239Z,4.63
2022-09-10T09:20:32.384Z,7.68
2022-09-10T09:24:14.680Z,6.25
2022-09-10T09:27:42.543Z,7.85
2022-09-10T09:30:50.860Z,8.25
2022-09-10T09:34:04.021Z,6.78
2022-09-10T09:37:31.263Z,6.68
2022-09-10T09:40:50.940Z,6.43
2022-09-10T09:44:04.435Z,7.72
2022-09-10T09:47:10.698Z,7.80
2022-09-10T09:50:22.175Z,8.07
2022-09-10T09:53:28.782Z,6.88
2022-09-10T09:56:38.431Z,6.47
2022-09-10T09:59:44.856Z,4.10
2022-09-10T10:02:50.488Z,3.88
2022-09-10T10:06:10.319Z,4.82
2022-09-10T10:09:30.267Z,4.95
2022-09-10T10:12:36.497Z,3.00
2022-09-10T10:15:45.332Z,5.30
2022-09-10T10:18:52.038Z,6.00
2022-09-10T10:22:00.632Z,5.75
2022-09-10T10:25:27.912Z,6.63
2022-09-10T10:31:45.976Z,5.97
2022-09-10T10:35:20.972Z,8.10
2022-09-10T10:38:30.387Z,5.78
2022-09-10T10:41:34.981Z,4.57
2022-09-10T10:45:02.171Z,4.83
2022-09-10T10:48:20.484Z,5.68
2022-09-10T10:51:58.661Z,4.80
2022-09-10T10:55:25.298Z,4.25
2022-09-10T10:59:07.413Z,3.83
2022-09-10T11:02:17.987Z,5.38
2022-09-10T11:05:32.594Z,5.50
2022-09-10T11:08:56.120Z,5.18
2022-09-10T11:12:29.401Z,5.80
2022-09-10T11:15:45.387Z,7.70
2022-09-10T11:19:03.987Z,8.75
2022-09-10T11:22:14.828Z,7.63
2022-09-10T11:25:30.124Z,8.50
2022-09-10T11:28:44.938Z,8.70
2022-09-10T11:32:21.167Z,6.37
2022-09-10T11:35:54.001Z,6.43
2022-09-10T11:39:20.115Z,6.47
2022-09-10T11:45:58.276Z,4.07
2022-09-10T11:49:08.849Z,6.30
2022-09-10T11:52:13.243Z,5.40
2022-09-10T11:55:19.020Z,6.80
2022-09-10T11:58:49.907Z,6.22
2022-09-10T12:02:28.242Z,6.43
2022-09-10T12:05:51.643Z,6.75
2022-09-10T12:08:56.882Z,6.80
2022-09-10T12:12:31.493Z,6.50
2022-09-10T12:15:37.951Z,6.90
2022-09-10T12:18:46.423Z,7.60
2022-09-10T12:21:55.906Z,7.85
2022-09-10T12:25:03.860Z,7.25
2022-09-10T12:28:43.421Z,7.45
2022-09-10T12:32:14.447Z,6.40
2022-09-10T12:35:38.442Z,7.03
2022-09-10T12:39:21.031Z,7.88
2022-09-10T12:42:34.249Z,7.60
2022-09-10T12:46:19.131Z,7.30
2022-09-10T12:49:24.364Z,7.05
2022-09-10T12:52:53.998Z,6.70
2022-09-10T12:56:33.840Z,7.55
2022-09-10T13:00:05.636Z,7.13
2022-09-10T13:03:18.541Z,9.50
2022-09-10T13:06:43.537Z,8.63
2022-09-10T13:10:00.247Z,8.23
2022-09-10T13:13:09.459Z,7.43
2022-09-10T13:16:34.127Z,7.03
2022-09-10T13:19:45.123Z,6.47
2022-09-10T13:23:13.098Z,6.80
2022-09-10T13:26:26.850Z,5.38
2022-09-10T13:29:37.922Z,3.20
2022-09-10T13:33:32.158Z,3.30
2022-09-10T13:37:17.719Z,3.00
2022-09-10T13:40:57.472Z,2.78
2022-09-10T13:44:53.183Z,2.70
2022-09-10T13:48:15.939Z,2.28
2022-09-10T13:51:34.413Z,2.53
2022-09-10T13:54:48.174Z,2.65
2022-09-10T13:58:00.358Z,2.40
2022-09-10T14:01:06.486Z,2.25
2022-09-10T14:04:40.877Z,2.50
2022-09-10T14:07:58.540Z,2.53
2022-09-10T14:11:32.736Z,2.83
2022-09-10T14:14:49.597Z,2.67
2022-09-10T14:18:13.844Z,2.95
2022-09-10T14:21:20.635Z,3.30
2022-09-10T14:29:19.978Z,4.10
2022-09-10T14:32:38.350Z,4.10
2022-09-10T14:35:50.315Z,4.45
2022-09-10T14:39:04.104Z,4.35
2022-09-10T14:42:11.935Z,5.88
2022-09-10T14:45:39.374Z,9.90
2022-09-10T14:49:05.424Z,18.85
2022-09-10T14:52:12.909Z,6.82
2022-09-10T14:55:19.263Z,6.40
2022-09-10T14:58:24.391Z,7.20
2022-09-10T15:01:30.259Z,5.32
2022-09-10T15:04:35.465Z,8.45
2022-09-10T15:07:41.131Z,8.65
2022-09-10T15:13:50.820Z,6.32
2022-09-10T15:16:57.543Z,6.10
2022-09-10T15:20:04.488Z,6.03
2022-09-10T15:23:09.401Z,5.43
2022-09-10T15:26:16.221Z,4.70
2022-09-10T15:29:21.527Z,5.25
2022-09-10T15:32:26.562Z,4.65
2022-09-10T15:35:32.147Z,5.93
2022-09-10T15:38:37.433Z,6.65
2022-09-10T15:41:44.354Z,5.60
2022-09-10T15:44:49.162Z,5.75
2022-09-10T15:47:55.418Z,5.27
2022-09-10T15:51:14.750Z,5.38
2022-09-10T15:54:19.712Z,5.30
2022-09-10T15:57:24.858Z,5.22
2022-09-10T16:00:29.652Z,5.00
2022-09-10T16:03:35.521Z,6.25
2022-09-10T16:06:41.467Z,5.38
2022-09-10T16:09:46.639Z,5.10
2022-09-10T16:12:51.649Z,5.32
2022-09-10T16:16:02.445Z,4.45
2022-09-10T16:19:08.103Z,4.25
2022-09-10T16:22:16.408Z,4.07
2022-09-10T16:25:25.727Z,4.20
2022-09-10T16:28:31.369Z,3.90
2022-09-10T16:31:41.671Z,3.13
2022-09-10T16:34:49.361Z,3.33
2022-09-10T16:37:54.418Z,3.60
2022-09-10T16:41:08.364Z,3.38
2022-09-10T16:44:15.747Z,3.28
2022-09-10T16:47:20.461Z,3.08
2022-09-10T16:50:45.872Z,3.37
2022-09-10T16:54:06.825Z,3.53
2022-09-10T16:57:11.940Z,2.88
2022-09-10T17:00:17.620Z,2.80
2022-09-10T17:04:07.839Z,2.58
2022-09-10T17:07:41.002Z,2.70
2022-09-10T17:10:46.740Z,2.60
2022-09-10T17:16:57.365Z,9.38
2022-09-10T17:20:02.311Z,8.18
2022-09-10T17:23:08.855Z,5.47
2022-09-10T17:26:14.286Z,3.20
2022-09-10T17:29:23.214Z,3.20
2022-09-10T17:32:28.291Z,3.85
2022-09-10T17:35:33.292Z,5.43
2022-09-10T17:38:38.585Z,5.15
2022-09-10T17:41:44.166Z,25.40
2022-09-10T17:47:55.367Z,19.70
2022-09-10T17:51:01.228Z,16.27
2022-09-10T17:54:06.066Z,8.68
2022-09-10T17:57:11.881Z,7.93
2022-09-10T18:00:17.231Z,8.55
2022-09-10T18:03:22.048Z,4.72
2022-09-10T18:06:29.802Z,3.67
2022-09-10T18:09:34.779Z,2.70
2022-09-10T18:12:40.147Z,1.95
2022-09-10T18:15:48.231Z,2.00
2022-09-10T18:18:55.267Z,2.40
2022-09-10T18:22:04.550Z,2.33
2022-09-10T18:25:20.968Z,2.42
2022-09-10T18:28:29.736Z,2.05
2022-09-10T18:31:37.908Z,1.98
2022-09-10T18:34:46.218Z,2.30
2022-09-10T18:37:52.867Z,2.70
2022-09-10T18:41:03.393Z,4.65
2022-09-10T18:44:17.195Z,2.70
2022-09-10T18:47:41.310Z,2.80
2022-09-10T18:50:48.447Z,2.70
2022-09-10T18:53:55.964Z,2.30
2022-09-10T18:57:02.341Z,2.58
2022-09-10T19:00:07.832Z,2.85
2022-09-10T19:03:12.930Z,3.25
2022-09-10T19:06:20.899Z,2.83
2022-09-10T19:09:28.609Z,2.20
2022-09-10T19:12:33.731Z,2.25
2022-09-10T19:15:38.798Z,1.98
2022-09-10T19:18:44.961Z,2.15
2022-09-10T19:21:55.562Z,2.45
2022-09-10T19:25:00.435Z,2.50
2022-09-10T19:28:07.359Z,2.50
2022-09-10T19:31:16.766Z,2.92
2022-09-10T19:34:23.027Z,4.72
2022-09-10T19:37:28.669Z,2.35
2022-09-10T19:40:33.585Z,2.38
2022-09-10T19:43:38.602Z,2.33
2022-09-10T19:46:46.336Z,2.20
2022-09-10T19:49:51.996Z,1.90
2022-09-10T19:52:57.022Z,1.80
2022-09-10T19:56:08.623Z,1.98
2022-09-10T19:59:13.808Z,2.45
2022-09-10T20:02:19.929Z,2.03
2022-09-10T20:05:25.523Z,2.00
2022-09-10T20:08:30.415Z,1.58
2022-09-10T20:11:36.507Z,1.90
2022-09-10T20:14:41.506Z,1.73
2022-09-10T20:17:52.161Z,1.98
2022-09-10T20:20:59.309Z,2.20
2022-09-10T20:24:04.740Z,3.60
2022-09-10T20:27:09.782Z,3.03
2022-09-10T20:30:15.258Z,3.67
2022-09-10T20:33:20.965Z,3.92
2022-09-10T20:36:28.509Z,3.30
2022-09-10T20:39:49.880Z,3.13
2022-09-10T20:43:03.058Z,3.70
2022-09-10T20:46:22.486Z,3.20
2022-09-10T20:49:50.936Z,3.60
2022-09-10T20:53:17.749Z,3.38
2022-09-10T20:56:33.195Z,3.15
2022-09-10T21:11:29.928Z,2.33
2022-09-10T21:14:49.855Z,2.95
2022-09-10T21:18:05.711Z,3.38
2022-09-10T21:21:36.060Z,3.08
2022-09-10T21:24:41.297Z,3.80
2022-09-10T21:27:47.828Z,1.63
2022-09-10T21:30:52.929Z,1.23
2022-09-10T21:34:02.947Z,1.50
2022-09-10T21:37:08.215Z,1.80
2022-09-10T21:40:13.498Z,1.27
2022-09-10T21:43:25.037Z,1.50
2022-09-10T21:57:14.205Z,1.23
2022-09-10T22:41:11.041Z,1.60
2022-09-10T22:44:18.732Z,1.52
2022-09-10T22:47:28.908Z,1.45
2022-09-10T22:54:00.179Z,1.40
2022-09-10T22:57:41.129Z,1.50
2022-09-10T23:02:41.999Z,1.15
2022-09-10T23:06:05.104Z,1.33
2022-09-10T23:09:16.913Z,1.33
2022-09-10T23:12:23.543Z,1.70
2022-09-10T23:18:34.028Z,1.60
2022-09-10T23:21:46.669Z,1.70
2022-09-10T23:24:52.058Z,1.60
2022-09-10T23:27:57.478Z,1.52
2022-09-10T23:31:15.964Z,1.08
2022-09-10T23:34:22.517Z,1.42
2022-09-10T23:37:45.829Z,1.20
2022-09-10T23:40:50.481Z,1.85
2022-09-10T23:43:55.631Z,1.20
2022-09-10T23:47:01.120Z,1.95
2022-09-10T23:50:07.087Z,1.80
2022-09-10T23:53:12.272Z,1.25
2022-09-10T23:56:19.959Z,1.30
2022-09-10T23:59:24.841Z,1.42
